createdAt,value
2023-01-17T00:00:18.718Z,100.00
2023-01-17T00:02:47.045Z,100.00
2023-01-17T00:05:32.563Z,100.00
2023-01-17T00:08:17.778Z,100.00
2023-01-17T00:10:47.328Z,100.00
2023-01-17T00:13:15.239Z,100.00
2023-01-17T00:15:43.483Z,100.00
2023-01-17T00:18:11.415Z,100.00
2023-01-17T00:20:56.740Z,100.00
2023-01-17T00:23:55.547Z,100.00
2023-01-17T00:26:24.886Z,100.00
2023-01-17T00:28:51.685Z,100.00
2023-01-17T00:31:18.608Z,100.00
2023-01-17T00:33:45.448Z,100.00
2023-01-17T00:36:12.267Z,100.00
2023-01-17T00:38:40.406Z,100.00
2023-01-17T00:41:09.292Z,100.00
2023-01-17T00:43:56.370Z,100.00
2023-01-17T00:46:41.581Z,100.00
2023-01-17T00:49:27.699Z,100.00
2023-01-17T00:52:13.120Z,100.00
2023-01-17T00:54:58.271Z,100.00
2023-01-17T00:57:43.787Z,100.00
2023-01-17T01:00:31.900Z,100.00
2023-01-17T01:03:17.009Z,100.00
2023-01-17T01:06:02.531Z,100.00
2023-01-17T01:08:48.641Z,100.00
2023-01-17T01:11:36.066Z,100.00
2023-01-17T01:14:22.430Z,100.00
2023-01-17T01:17:09.453Z,100.00
2023-01-17T01:19:54.657Z,100.00
2023-01-17T01:22:40.077Z,100.00
2023-01-17T01:25:26.007Z,100.00
2023-01-17T01:28:11.467Z,100.00
2023-01-17T01:30:56.642Z,100.00
2023-01-17T01:33:24.734Z,100.00
2023-01-17T01:35:54.676Z,100.00
2023-01-17T01:38:25.384Z,100.00
2023-01-17T01:40:55.843Z,100.00
2023-01-17T01:43:41.301Z,100.00
2023-01-17T01:46:12.298Z,100.00
2023-01-17T01:48:45.384Z,100.00
2023-01-17T01:51:18.359Z,100.00
2023-01-17T01:53:49.052Z,100.00
2023-01-17T01:56:20.098Z,100.00
2023-01-17T01:58:52.609Z,100.00
2023-01-17T02:01:21.092Z,100.00
2023-01-17T02:03:51.129Z,100.00
2023-01-17T02:06:35.945Z,100.00
2023-01-17T02:09:07.596Z,100.00
2023-01-17T02:11:38.836Z,100.00
2023-01-17T02:14:07.040Z,100.00
2023-01-17T02:16:51.270Z,100.00
2023-01-17T02:19:45.808Z,100.00
2023-01-17T02:22:38.072Z,100.00
2023-01-17T02:25:21.537Z,100.00
2023-01-17T02:28:07.720Z,100.00
2023-01-17T02:30:40.607Z,100.00
2023-01-17T02:33:23.523Z,100.00
2023-01-17T02:35:59.720Z,100.00
2023-01-17T02:38:38.049Z,100.00
2023-01-17T02:41:08.042Z,100.00
2023-01-17T02:43:37.437Z,100.00
2023-01-17T02:46:09.561Z,100.00
2023-01-17T02:48:38.278Z,100.00
2023-01-17T02:51:39.006Z,100.00
2023-01-17T02:54:33.606Z,100.00
2023-01-17T02:57:14.851Z,100.00
2023-01-17T02:59:51.099Z,100.00
2023-01-17T03:02:29.121Z,100.00
2023-01-17T03:05:02.758Z,100.00
2023-01-17T03:07:32.690Z,100.00
2023-01-17T03:10:05.119Z,100.00
2023-01-17T03:12:36.232Z,100.00
2023-01-17T03:15:04.289Z,100.00
2023-01-17T03:17:34.129Z,100.00
2023-01-17T03:20:01.944Z,100.00
2023-01-17T03:22:29.753Z,100.00
2023-01-17T03:24:57.721Z,100.00
2023-01-17T03:27:25.573Z,100.00
2023-01-17T03:29:53.439Z,100.00
2023-01-17T03:32:21.288Z,100.00
2023-01-17T03:34:50.627Z,100.00
2023-01-17T03:37:18.599Z,100.00
2023-01-17T03:39:46.423Z,100.00
2023-01-17T03:42:14.290Z,100.00
2023-01-17T03:44:42.123Z,100.00
2023-01-17T03:47:12.115Z,100.00
2023-01-17T03:49:40.082Z,100.00
2023-01-17T03:52:09.343Z,100.00
2023-01-17T03:54:37.151Z,100.00
2023-01-17T03:57:05.193Z,100.00
2023-01-17T03:59:33.987Z,100.00
2023-01-17T04:02:02.217Z,100.00
2023-01-17T04:04:30.186Z,100.00
2023-01-17T04:06:57.992Z,100.00
2023-01-17T04:09:27.201Z,100.00
2023-01-17T04:11:55.253Z,100.00
2023-01-17T04:14:23.291Z,100.00
2023-01-17T04:16:51.131Z,100.00
2023-01-17T04:19:19.281Z,100.00
2023-01-17T04:21:47.226Z,100.00
2023-01-17T04:24:17.729Z,100.00
2023-01-17T04:26:47.069Z,100.00
2023-01-17T04:29:14.882Z,100.00
2023-01-17T04:31:42.793Z,100.00
2023-01-17T04:34:10.757Z,100.00
2023-01-17T04:36:38.691Z,100.00
2023-01-17T04:39:06.548Z,100.00
2023-01-17T04:41:34.496Z,100.00
2023-01-17T04:44:04.321Z,100.00
2023-01-17T04:46:32.551Z,100.00
2023-01-17T04:49:00.469Z,100.00
2023-01-17T04:51:28.397Z,100.00
2023-01-17T04:53:56.478Z,100.00
2023-01-17T04:56:24.304Z,100.00
2023-01-17T04:58:52.313Z,100.00
2023-01-17T05:01:21.645Z,100.00
2023-01-17T05:03:49.658Z,100.00
2023-01-17T05:06:17.682Z,100.00
2023-01-17T05:08:45.559Z,100.00
2023-01-17T05:11:13.453Z,100.00
2023-01-17T05:13:41.270Z,100.00
2023-01-17T05:16:09.184Z,100.00
2023-01-17T05:18:38.479Z,100.00
2023-01-17T05:21:06.685Z,100.00
2023-01-17T05:23:34.672Z,100.00
2023-01-17T05:26:02.577Z,100.00
2023-01-17T05:28:30.364Z,100.00
2023-01-17T05:30:58.354Z,100.00
2023-01-17T05:33:26.528Z,100.00
2023-01-17T05:35:55.972Z,100.00
2023-01-17T05:38:24.107Z,100.00
2023-01-17T05:40:52.057Z,100.00
2023-01-17T05:43:22.073Z,100.00
2023-01-17T05:45:50.527Z,100.00
2023-01-17T05:48:18.428Z,100.00
2023-01-17T05:50:46.278Z,100.00
2023-01-17T05:53:17.275Z,100.00
2023-01-17T05:55:45.550Z,100.00
2023-01-17T05:58:17.324Z,100.00
2023-01-17T06:00:46.177Z,100.00
2023-01-17T06:03:14.348Z,100.00
2023-01-17T06:05:43.029Z,100.00
2023-01-17T06:08:11.301Z,100.00
2023-01-17T06:10:41.014Z,100.00
2023-01-17T06:13:12.207Z,100.00
2023-01-17T06:15:41.080Z,100.00
2023-01-17T06:18:10.614Z,100.00
2023-01-17T06:20:38.758Z,100.00
2023-01-17T06:23:09.039Z,100.00
2023-01-17T06:25:38.735Z,100.00
2023-01-17T06:28:08.477Z,100.00
2023-01-17T06:30:37.222Z,100.00
2023-01-17T06:33:05.603Z,100.00
2023-01-17T06:35:34.043Z,100.00
2023-01-17T06:38:02.030Z,100.00
2023-01-17T06:40:30.715Z,100.00
2023-01-17T06:43:00.903Z,100.00
2023-01-17T06:45:30.937Z,100.00
2023-01-17T06:47:59.697Z,100.00
2023-01-17T06:50:27.925Z,100.00
2023-01-17T06:52:57.157Z,100.00
2023-01-17T06:55:25.093Z,100.00
2023-01-17T06:57:52.940Z,100.00
2023-01-17T07:00:21.353Z,100.00
2023-01-17T07:02:51.852Z,100.00
2023-01-17T07:05:20.521Z,100.00
2023-01-17T07:07:48.610Z,100.00
2023-01-17T07:10:17.461Z,100.00
2023-01-17T07:12:45.450Z,100.00
2023-01-17T07:15:13.913Z,100.00
2023-01-17T07:17:41.787Z,100.00
2023-01-17T07:20:13.582Z,100.00
2023-01-17T07:22:45.298Z,100.00
2023-01-17T07:25:13.904Z,100.00
2023-01-17T07:27:41.729Z,100.00
2023-01-17T07:30:11.153Z,100.00
2023-01-17T07:32:39.008Z,100.00
2023-01-17T07:35:08.119Z,100.00
2023-01-17T07:37:37.380Z,100.00
2023-01-17T07:40:06.030Z,100.00
2023-01-17T07:42:33.904Z,100.00
2023-01-17T07:45:02.206Z,100.00
2023-01-17T07:47:30.260Z,100.00
2023-01-17T07:49:58.064Z,100.00
2023-01-17T07:52:26.090Z,100.00
2023-01-17T07:54:55.311Z,100.00
2023-01-17T07:57:23.393Z,100.00
2023-01-17T07:59:52.331Z,100.00
2023-01-17T08:02:23.457Z,100.00
2023-01-17T08:04:51.505Z,100.00
2023-01-17T08:07:19.325Z,100.00
2023-01-17T08:09:49.775Z,100.00
2023-01-17T08:12:19.132Z,100.00
2023-01-17T08:14:46.974Z,100.00
2023-01-17T08:17:16.473Z,100.00
2023-01-17T08:19:44.717Z,100.00
2023-01-17T08:22:13.229Z,100.00
2023-01-17T08:24:41.828Z,100.00
2023-01-17T08:27:10.304Z,100.00
2023-01-17T08:29:42.045Z,100.00
2023-01-17T08:32:09.977Z,100.00
2023-01-17T08:34:37.824Z,100.00
2023-01-17T08:37:05.662Z,100.00
2023-01-17T08:39:33.500Z,100.00
2023-01-17T08:42:01.728Z,100.00
2023-01-17T08:44:29.470Z,100.00
2023-01-17T08:46:59.105Z,100.00
2023-01-17T08:49:29.646Z,100.00
2023-01-17T08:51:57.543Z,100.00
2023-01-17T08:54:25.354Z,100.00
2023-01-17T08:56:55.523Z,100.00
2023-01-17T08:59:23.345Z,100.00
2023-01-17T09:01:52.477Z,100.00
2023-01-17T09:04:22.166Z,100.00
2023-01-17T09:06:50.354Z,100.00
2023-01-17T09:09:18.774Z,100.00
2023-01-17T09:11:46.796Z,100.00
2023-01-17T09:14:15.538Z,100.00
2023-01-17T09:16:43.491Z,100.00
2023-01-17T09:19:11.597Z,100.00
2023-01-17T09:21:40.986Z,100.00
2023-01-17T09:24:08.936Z,100.00
2023-01-17T09:26:36.886Z,100.00
2023-01-17T09:29:04.762Z,100.00
2023-01-17T09:31:32.846Z,100.00
2023-01-17T09:34:01.319Z,100.00
2023-01-17T09:36:31.834Z,100.00
2023-01-17T09:39:02.064Z,100.00
2023-01-17T09:41:31.375Z,100.00
2023-01-17T09:44:07.605Z,100.00
2023-01-17T09:46:40.573Z,100.00
2023-01-17T09:49:12.958Z,100.00
2023-01-17T09:51:42.170Z,100.00
2023-01-17T09:54:22.832Z,100.00
2023-01-17T09:56:59.187Z,100.00
2023-01-17T09:59:36.887Z,100.00
2023-01-17T10:02:19.651Z,100.00
2023-01-17T10:05:13.580Z,100.00
2023-01-17T10:07:52.742Z,100.00
2023-01-17T10:10:38.095Z,100.00
2023-01-17T10:13:17.581Z,100.00
2023-01-17T10:15:57.722Z,100.00
2023-01-17T10:18:48.752Z,100.00
2023-01-17T10:21:28.200Z,100.00
2023-01-17T10:24:16.593Z,100.00
2023-01-17T10:26:49.914Z,100.00
2023-01-17T10:29:20.272Z,100.00
2023-01-17T10:31:55.902Z,100.00
2023-01-17T10:34:29.286Z,100.00
2023-01-17T10:37:03.117Z,99.14
2023-01-17T10:39:32.168Z,98.87
2023-01-17T10:42:07.807Z,100.00
2023-01-17T10:44:40.904Z,100.00
2023-01-17T10:47:19.757Z,100.00
2023-01-17T10:49:52.074Z,100.00
2023-01-17T10:52:34.526Z,100.00
2023-01-17T10:55:16.506Z,100.00
2023-01-17T10:57:48.722Z,100.00
2023-01-17T11:00:29.957Z,100.00
2023-01-17T11:02:58.351Z,100.00
2023-01-17T11:05:28.748Z,100.00
2023-01-17T11:08:03.140Z,100.00
2023-01-17T11:10:39.942Z,100.00
2023-01-17T11:13:24.756Z,100.00
2023-01-17T11:15:57.858Z,100.00
2023-01-17T11:18:28.754Z,100.00
2023-01-17T11:21:11.390Z,100.00
2023-01-17T11:23:42.894Z,100.00
2023-01-17T11:26:13.933Z,100.00
2023-01-17T11:28:43.639Z,100.00
2023-01-17T11:31:26.957Z,100.00
2023-01-17T11:34:14.489Z,100.00
2023-01-17T11:36:43.048Z,100.00
2023-01-17T11:39:27.807Z,100.00
2023-01-17T11:41:55.900Z,100.00
2023-01-17T11:44:28.360Z,100.00
2023-01-17T11:47:19.251Z,100.00
2023-01-17T11:49:49.413Z,100.00
2023-01-17T11:52:25.397Z,100.00
2023-01-17T11:54:56.017Z,100.00
2023-01-17T11:57:27.623Z,100.00
2023-01-17T12:00:05.122Z,98.23
2023-01-17T12:03:08.106Z,98.96
2023-01-17T12:05:51.391Z,99.30
2023-01-17T12:08:35.286Z,99.89
2023-01-17T12:11:13.092Z,97.54
2023-01-17T12:14:01.294Z,94.19
2023-01-17T12:16:54.970Z,94.73
2023-01-17T12:19:36.607Z,93.81
2023-01-17T12:22:20.674Z,94.97
2023-01-17T12:25:02.666Z,93.50
2023-01-17T12:27:45.606Z,95.83
2023-01-17T12:30:25.444Z,97.24
2023-01-17T12:33:10.349Z,97.91
2023-01-17T12:35:43.431Z,99.20
2023-01-17T12:38:27.318Z,98.61
2023-01-17T12:41:05.321Z,98.83
2023-01-17T12:43:37.244Z,99.05
2023-01-17T12:46:12.831Z,99.71
2023-01-17T12:48:42.343Z,97.76
2023-01-17T12:51:16.578Z,97.89
2023-01-17T12:53:56.442Z,95.79
2023-01-17T12:56:30.144Z,96.71
2023-01-17T12:59:07.512Z,95.37
2023-01-17T13:01:39.833Z,93.90
2023-01-17T13:04:19.561Z,90.31
2023-01-17T13:06:57.666Z,89.73
2023-01-17T13:09:27.997Z,89.29
2023-01-17T13:12:01.616Z,88.63
2023-01-17T13:14:29.747Z,86.38
2023-01-17T13:17:00.388Z,88.65
2023-01-17T13:19:41.357Z,90.53
2023-01-17T13:22:17.407Z,91.82
2023-01-17T13:24:53.617Z,94.24
2023-01-17T13:27:46.559Z,94.28
2023-01-17T13:30:43.303Z,91.74
2023-01-17T13:33:34.311Z,89.80
2023-01-17T13:36:29.828Z,90.66
2023-01-17T13:39:29.840Z,91.67
2023-01-17T13:42:10.403Z,93.13
2023-01-17T13:44:38.637Z,93.16
2023-01-17T13:47:28.132Z,93.60
2023-01-17T13:49:57.638Z,92.50
2023-01-17T13:52:33.556Z,91.19
2023-01-17T13:55:03.521Z,93.25
2023-01-17T13:57:39.934Z,94.23
2023-01-17T14:00:59.414Z,92.97
2023-01-17T14:04:04.065Z,94.99
2023-01-17T14:06:38.147Z,93.45
2023-01-17T14:09:14.166Z,93.21
2023-01-17T14:11:54.422Z,89.04
2023-01-17T14:14:43.577Z,91.58
2023-01-17T14:17:48.260Z,90.82
2023-01-17T14:20:38.352Z,92.81
2023-01-17T14:23:27.262Z,92.03
2023-01-17T14:25:59.095Z,89.91
2023-01-17T14:28:33.354Z,90.47
2023-01-17T14:31:03.361Z,90.93
2023-01-17T14:33:37.398Z,91.18
2023-01-17T14:36:07.415Z,91.47
2023-01-17T14:38:43.623Z,90.63
2023-01-17T14:41:16.309Z,91.12
2023-01-17T14:43:45.381Z,91.57
2023-01-17T14:46:19.805Z,89.66
2023-01-17T14:48:47.835Z,88.58
2023-01-17T14:51:21.485Z,86.74
2023-01-17T14:53:59.000Z,84.62
2023-01-17T14:56:29.478Z,84.92
2023-01-17T14:59:14.657Z,85.11
2023-01-17T15:01:43.062Z,85.69
2023-01-17T15:04:25.940Z,86.69
2023-01-17T15:06:54.739Z,88.48
2023-01-17T15:09:26.898Z,88.99
2023-01-17T15:11:57.308Z,89.26
2023-01-17T15:14:29.964Z,89.45
2023-01-17T15:16:58.224Z,89.99
2023-01-17T15:19:26.744Z,91.83
2023-01-17T15:21:55.783Z,93.13
2023-01-17T15:24:28.815Z,94.70
2023-01-17T15:26:57.272Z,95.58
2023-01-17T15:29:27.784Z,97.04
2023-01-17T15:31:59.122Z,98.43
2023-01-17T15:34:30.337Z,99.12
2023-01-17T15:37:01.529Z,98.58
2023-01-17T15:39:32.894Z,98.80
2023-01-17T15:42:04.110Z,99.99
2023-01-17T15:44:47.417Z,100.00
2023-01-17T15:47:29.892Z,100.00
2023-01-17T15:49:58.026Z,100.00
2023-01-17T15:52:26.038Z,100.00
2023-01-17T15:54:59.653Z,100.00
2023-01-17T15:57:29.721Z,100.00
2023-01-17T16:00:01.923Z,100.00
2023-01-17T16:02:42.993Z,100.00
2023-01-17T16:05:44.756Z,100.00
2023-01-17T16:08:29.057Z,100.00
2023-01-17T16:11:02.152Z,100.00
2023-01-17T16:13:32.045Z,100.00
2023-01-17T16:16:14.687Z,100.00
2023-01-17T16:18:43.567Z,100.00
2023-01-17T16:21:24.272Z,100.00
2023-01-17T16:23:52.894Z,100.00
2023-01-17T16:26:22.729Z,100.00
2023-01-17T16:28:51.389Z,100.00
2023-01-17T16:31:20.045Z,100.00
2023-01-17T16:33:50.769Z,100.00
2023-01-17T16:36:20.902Z,100.00
2023-01-17T16:38:50.386Z,100.00
2023-01-17T16:41:19.080Z,100.00
2023-01-17T16:43:58.514Z,100.00
2023-01-17T16:46:27.112Z,100.00
2023-01-17T16:48:55.137Z,100.00
2023-01-17T16:51:23.303Z,100.00
2023-01-17T16:53:51.145Z,100.00
2023-01-17T16:56:20.692Z,100.00
2023-01-17T16:58:52.155Z,100.00
2023-01-17T17:01:21.284Z,100.00
2023-01-17T17:03:49.609Z,100.00
2023-01-17T17:06:17.470Z,100.00
2023-01-17T17:08:45.903Z,100.00
2023-01-17T17:11:16.464Z,100.00
2023-01-17T17:13:45.789Z,100.00
2023-01-17T17:16:17.738Z,100.00
2023-01-17T17:18:47.359Z,100.00
2023-01-17T17:21:15.970Z,100.00
2023-01-17T17:23:44.031Z,100.00
2023-01-17T17:26:11.949Z,100.00
2023-01-17T17:28:39.797Z,100.00
2023-01-17T17:31:10.416Z,100.00
2023-01-17T17:33:39.931Z,100.00
2023-01-17T17:36:10.869Z,100.00
2023-01-17T17:38:50.788Z,100.00
2023-01-17T17:41:21.049Z,100.00
2023-01-17T17:43:48.798Z,100.00
2023-01-17T17:46:16.790Z,100.00
2023-01-17T17:48:45.985Z,100.00
2023-01-17T17:51:23.463Z,100.00
2023-01-17T17:53:52.649Z,100.00
2023-01-17T17:56:20.842Z,100.00
2023-01-17T17:58:49.337Z,100.00
2023-01-17T18:01:17.353Z,100.00
2023-01-17T18:03:46.683Z,100.00
2023-01-17T18:06:17.607Z,100.00
2023-01-17T18:08:46.069Z,100.00
2023-01-17T18:11:18.376Z,100.00
2023-01-17T18:13:50.505Z,100.00
2023-01-17T18:16:21.243Z,100.00
2023-01-17T18:18:52.354Z,100.00
2023-01-17T18:21:23.816Z,100.00
2023-01-17T18:23:54.455Z,100.00
2023-01-17T18:26:24.782Z,100.00
2023-01-17T18:28:53.257Z,100.00
2023-01-17T18:31:21.414Z,100.00
2023-01-17T18:33:50.927Z,100.00
2023-01-17T18:36:19.651Z,100.00
2023-01-17T18:38:48.744Z,100.00
2023-01-17T18:41:18.639Z,100.00
2023-01-17T18:43:46.524Z,100.00
2023-01-17T18:46:14.886Z,100.00
2023-01-17T18:48:43.019Z,100.00
2023-01-17T18:51:14.110Z,100.00
2023-01-17T18:53:44.014Z,100.00
2023-01-17T18:56:13.922Z,100.00
2023-01-17T18:58:43.519Z,100.00
2023-01-17T19:01:13.908Z,100.00
2023-01-17T19:03:43.859Z,100.00
2023-01-17T19:06:15.490Z,100.00
2023-01-17T19:08:44.197Z,100.00
2023-01-17T19:11:12.379Z,100.00
2023-01-17T19:13:41.849Z,100.00
2023-01-17T19:16:13.833Z,100.00
2023-01-17T19:18:42.142Z,100.00
2023-01-17T19:21:11.565Z,100.00
2023-01-17T19:23:41.328Z,100.00
2023-01-17T19:26:10.176Z,100.00
2023-01-17T19:28:39.572Z,100.00
2023-01-17T19:31:09.904Z,100.00
2023-01-17T19:33:39.499Z,100.00
2023-01-17T19:36:10.514Z,100.00
2023-01-17T19:38:40.374Z,100.00
2023-01-17T19:41:10.134Z,100.00
2023-01-17T19:43:38.247Z,100.00
2023-01-17T19:46:08.047Z,100.00
2023-01-17T19:48:36.648Z,100.00
2023-01-17T19:51:06.463Z,100.00
2023-01-17T19:53:35.688Z,100.00
2023-01-17T19:56:07.920Z,100.00
2023-01-17T19:58:36.353Z,100.00
2023-01-17T20:01:09.435Z,100.00
2023-01-17T20:03:38.419Z,100.00
2023-01-17T20:06:07.447Z,100.00
2023-01-17T20:08:35.823Z,100.00
2023-01-17T20:11:06.670Z,100.00
2023-01-17T20:13:34.653Z,100.00
2023-01-17T20:16:03.416Z,100.00
2023-01-17T20:18:31.517Z,100.00
2023-01-17T20:21:03.225Z,100.00
2023-01-17T20:23:35.445Z,100.00
2023-01-17T20:26:04.645Z,100.00
2023-01-17T20:28:35.607Z,100.00
2023-01-17T20:31:08.885Z,100.00
2023-01-17T20:33:37.345Z,100.00
2023-01-17T20:36:10.438Z,100.00
2023-01-17T20:38:44.736Z,100.00
2023-01-17T20:41:14.494Z,100.00
2023-01-17T20:43:44.529Z,100.00
2023-01-17T20:46:12.797Z,100.00
2023-01-17T20:48:45.482Z,100.00
2023-01-17T20:51:13.702Z,100.00
2023-01-17T20:53:43.382Z,100.00
2023-01-17T20:56:13.133Z,100.00
2023-01-17T20:58:41.907Z,100.00
2023-01-17T21:01:13.018Z,100.00
2023-01-17T21:03:41.131Z,100.00
2023-01-17T21:06:11.251Z,100.00
2023-01-17T21:08:39.378Z,100.00
2023-01-17T21:11:09.076Z,100.00
2023-01-17T21:13:36.883Z,100.00
2023-01-17T21:16:05.149Z,100.00
2023-01-17T21:18:35.334Z,100.00
2023-01-17T21:21:03.517Z,100.00
2023-01-17T21:23:31.304Z,100.00
2023-01-17T21:25:59.233Z,100.00
2023-01-17T21:28:29.135Z,100.00
2023-01-17T21:30:57.977Z,100.00
2023-01-17T21:33:29.280Z,100.00
2023-01-17T21:36:07.800Z,100.00
2023-01-17T21:38:35.865Z,100.00
2023-01-17T21:41:03.957Z,100.00
2023-01-17T21:43:31.975Z,100.00
2023-01-17T21:46:03.423Z,100.00
2023-01-17T21:48:31.546Z,100.00
2023-01-17T21:51:06.073Z,100.00
2023-01-17T21:53:35.455Z,100.00
2023-01-17T21:56:25.945Z,100.00
2023-01-17T21:58:56.813Z,100.00
2023-01-17T22:01:26.239Z,100.00
2023-01-17T22:03:56.190Z,100.00
2023-01-17T22:06:27.680Z,100.00
2023-01-17T22:08:57.341Z,100.00
2023-01-17T22:11:27.315Z,100.00
2023-01-17T22:13:56.740Z,100.00
2023-01-17T22:16:26.806Z,100.00
2023-01-17T22:18:54.946Z,100.00
2023-01-17T22:21:26.147Z,100.00
2023-01-17T22:23:56.363Z,100.00
2023-01-17T22:26:26.253Z,100.00
2023-01-17T22:28:54.728Z,100.00
2023-01-17T22:31:24.699Z,100.00
2023-01-17T22:33:54.935Z,100.00
2023-01-17T22:36:23.465Z,100.00
2023-01-17T22:38:53.415Z,100.00
2023-01-17T22:41:23.223Z,100.00
2023-01-17T22:43:52.770Z,100.00
2023-01-17T22:46:23.059Z,100.00
2023-01-17T22:48:52.201Z,100.00
2023-01-17T22:51:21.659Z,100.00
2023-01-17T22:53:51.015Z,100.00
2023-01-17T22:56:22.561Z,100.00
2023-01-17T22:58:51.194Z,100.00
2023-01-17T23:01:20.815Z,100.00
2023-01-17T23:03:53.363Z,100.00
2023-01-17T23:06:25.414Z,100.00
2023-01-17T23:08:55.359Z,100.00
2023-01-17T23:11:43.789Z,100.00
2023-01-17T23:14:17.440Z,100.00
2023-01-17T23:17:05.692Z,100.00
2023-01-17T23:19:35.895Z,100.00
2023-01-17T23:22:19.094Z,100.00
2023-01-17T23:24:49.574Z,100.00
2023-01-17T23:27:38.913Z,100.00
2023-01-17T23:30:11.118Z,100.00
2023-01-17T23:32:39.067Z,100.00
2023-01-17T23:35:07.782Z,100.00
2023-01-17T23:37:52.907Z,100.00
2023-01-17T23:40:20.793Z,100.00
2023-01-17T23:43:07.517Z,100.00
2023-01-17T23:45:36.779Z,100.00
2023-01-17T23:48:09.208Z,100.00
2023-01-17T23:50:38.178Z,100.00
2023-01-17T23:53:07.952Z,100.00
2023-01-17T23:55:37.323Z,100.00
2023-01-17T23:58:08.441Z,100.00
